sensor_id;sensor_type;location;lat;lon;timestamp;pressure;altitude;pressure_sealevel;temperature;humidity
7178;BME280;3630;42.146;24.756;2022-08-07T00:02:03;99060.34;;;25.13;72.32
7178;BME280;3630;42.146;24.756;2022-08-07T00:04:29;99066.59;;;25.10;72.29
7178;BME280;3630;42.146;24.756;2022-08-07T00:06:58;99052.66;;;25.08;72.92
7178;BME280;3630;42.146;24.756;2022-08-07T00:09:24;99053.81;;;25.03;72.37
7178;BME280;3630;42.146;24.756;2022-08-07T00:11:51;99051.56;;;24.95;72.42
7178;BME280;3630;42.146;24.756;2022-08-07T00:14:20;99054.06;;;24.98;72.93
7178;BME280;3630;42.146;24.756;2022-08-07T00:16:46;99053.28;;;24.96;72.64
7178;BME280;3630;42.146;24.756;2022-08-07T00:19:13;99054.06;;;24.98;72.59
7178;BME280;3630;42.146;24.756;2022-08-07T00:21:40;99049.09;;;24.92;72.64
7178;BME280;3630;42.146;24.756;2022-08-07T00:24:08;99046.06;;;24.83;73.00
7178;BME280;3630;42.146;24.756;2022-08-07T00:26:35;99051.50;;;24.78;73.53
7178;BME280;3630;42.146;24.756;2022-08-07T00:29:02;99045.63;;;24.73;73.46
7178;BME280;3630;42.146;24.756;2022-08-07T00:31:29;99044.00;;;24.71;73.91
7178;BME280;3630;42.146;24.756;2022-08-07T00:33:55;99044.38;;;24.63;74.19
7178;BME280;3630;42.146;24.756;2022-08-07T00:36:22;99037.22;;;24.67;73.95
7178;BME280;3630;42.146;24.756;2022-08-07T00:38:49;99039.50;;;24.73;73.83
7178;BME280;3630;42.146;24.756;2022-08-07T00:41:24;99046.56;;;24.72;72.93
7178;BME280;3630;42.146;24.756;2022-08-07T00:43:51;99039.66;;;24.70;72.75
7178;BME280;3630;42.146;24.756;2022-08-07T00:46:18;99035.41;;;24.67;73.10
7178;BME280;3630;42.146;24.756;2022-08-07T00:48:45;99043.28;;;24.67;73.08
7178;BME280;3630;42.146;24.756;2022-08-07T00:51:12;99047.53;;;24.70;72.93
7178;BME280;3630;42.146;24.756;2022-08-07T00:53:40;99048.41;;;24.70;72.92
7178;BME280;3630;42.146;24.756;2022-08-07T00:56:07;99043.94;;;24.72;72.84
7178;BME280;3630;42.146;24.756;2022-08-07T00:58:40;99042.59;;;24.63;72.94
7178;BME280;3630;42.146;24.756;2022-08-07T01:01:07;99046.28;;;24.59;73.45
7178;BME280;3630;42.146;24.756;2022-08-07T01:03:34;99047.38;;;24.55;73.66
7178;BME280;3630;42.146;24.756;2022-08-07T01:06:01;99048.38;;;24.53;73.81
7178;BME280;3630;42.146;24.756;2022-08-07T01:08:28;99043.13;;;24.53;73.74
7178;BME280;3630;42.146;24.756;2022-08-07T01:10:56;99052.78;;;24.52;74.23
7178;BME280;3630;42.146;24.756;2022-08-07T01:13:22;99039.84;;;24.48;74.80
7178;BME280;3630;42.146;24.756;2022-08-07T01:15:51;99037.16;;;24.49;74.37
7178;BME280;3630;42.146;24.756;2022-08-07T01:18:19;99043.25;;;24.50;74.90
7178;BME280;3630;42.146;24.756;2022-08-07T01:20:49;99033.94;;;24.43;75.37
7178;BME280;3630;42.146;24.756;2022-08-07T01:23:20;99035.84;;;24.39;75.39
7178;BME280;3630;42.146;24.756;2022-08-07T01:25:47;99039.56;;;24.35;75.20
7178;BME280;3630;42.146;24.756;2022-08-07T01:28:15;99034.59;;;24.29;75.39
7178;BME280;3630;42.146;24.756;2022-08-07T01:30:43;99040.25;;;24.20;74.80
7178;BME280;3630;42.146;24.756;2022-08-07T01:33:10;99039.72;;;24.14;75.22
7178;BME280;3630;42.146;24.756;2022-08-07T01:35:37;99040.50;;;24.16;75.21
7178;BME280;3630;42.146;24.756;2022-08-07T01:38:06;99037.72;;;24.19;74.88
7178;BME280;3630;42.146;24.756;2022-08-07T01:40:34;99038.72;;;24.16;74.71
7178;BME280;3630;42.146;24.756;2022-08-07T01:43:02;99033.84;;;24.07;75.02
7178;BME280;3630;42.146;24.756;2022-08-07T01:45:29;99028.69;;;24.05;74.78
7178;BME280;3630;42.146;24.756;2022-08-07T01:47:57;99034.97;;;24.01;75.17
7178;BME280;3630;42.146;24.756;2022-08-07T01:50:25;99041.16;;;24.00;75.43
7178;BME280;3630;42.146;24.756;2022-08-07T01:52:55;99029.81;;;24.00;75.19
7178;BME280;3630;42.146;24.756;2022-08-07T01:55:24;99031.72;;;23.96;75.17
7178;BME280;3630;42.146;24.756;2022-08-07T01:57:56;99037.97;;;23.94;74.63
7178;BME280;3630;42.146;24.756;2022-08-07T02:00:26;99034.56;;;23.92;74.79
7178;BME280;3630;42.146;24.756;2022-08-07T02:02:57;99024.25;;;23.87;75.20
7178;BME280;3630;42.146;24.756;2022-08-07T02:05:27;99032.22;;;23.86;75.60
7178;BME280;3630;42.146;24.756;2022-08-07T02:08:00;99039.34;;;23.82;75.58
7178;BME280;3630;42.146;24.756;2022-08-07T02:10:29;99031.56;;;23.81;75.80
7178;BME280;3630;42.146;24.756;2022-08-07T02:13:00;99028.13;;;23.79;76.10
7178;BME280;3630;42.146;24.756;2022-08-07T02:15:29;99035.97;;;23.80;75.95
7178;BME280;3630;42.146;24.756;2022-08-07T02:17:58;99025.72;;;23.74;75.80
7178;BME280;3630;42.146;24.756;2022-08-07T02:20:29;99038.72;;;23.77;76.19
7178;BME280;3630;42.146;24.756;2022-08-07T02:22:59;99031.75;;;23.76;76.19
7178;BME280;3630;42.146;24.756;2022-08-07T02:25:29;99035.38;;;23.74;75.93
7178;BME280;3630;42.146;24.756;2022-08-07T02:27:59;99031.25;;;23.68;76.42
7178;BME280;3630;42.146;24.756;2022-08-07T02:30:28;99029.56;;;23.67;76.33
7178;BME280;3630;42.146;24.756;2022-08-07T02:32:56;99029.47;;;23.69;76.23
7178;BME280;3630;42.146;24.756;2022-08-07T02:35:25;99034.53;;;23.73;76.08
7178;BME280;3630;42.146;24.756;2022-08-07T02:37:55;99038.00;;;23.74;75.81
7178;BME280;3630;42.146;24.756;2022-08-07T02:40:23;99031.84;;;23.75;75.44
7178;BME280;3630;42.146;24.756;2022-08-07T02:42:51;99017.94;;;23.73;75.36
7178;BME280;3630;42.146;24.756;2022-08-07T02:45:23;99022.59;;;23.66;75.75
7178;BME280;3630;42.146;24.756;2022-08-07T02:47:51;99031.25;;;23.68;75.59
7178;BME280;3630;42.146;24.756;2022-08-07T02:50:19;99032.97;;;23.69;75.39
7178;BME280;3630;42.146;24.756;2022-08-07T02:52:52;99028.69;;;23.67;75.96
7178;BME280;3630;42.146;24.756;2022-08-07T02:55:21;99029.44;;;23.70;76.04
7178;BME280;3630;42.146;24.756;2022-08-07T02:57:50;99026.84;;;23.69;75.62
7178;BME280;3630;42.146;24.756;2022-08-07T03:00:17;99038.84;;;23.74;75.78
7178;BME280;3630;42.146;24.756;2022-08-07T03:02:47;99029.94;;;23.78;74.95
7178;BME280;3630;42.146;24.756;2022-08-07T03:05:17;99024.69;;;23.78;75.04
7178;BME280;3630;42.146;24.756;2022-08-07T03:07:45;99045.47;;;23.83;74.66
7178;BME280;3630;42.146;24.756;2022-08-07T03:10:13;99030.56;;;23.83;74.58
7178;BME280;3630;42.146;24.756;2022-08-07T03:12:42;99030.31;;;23.89;73.50
7178;BME280;3630;42.146;24.756;2022-08-07T03:15:10;99035.41;;;23.92;73.68
7178;BME280;3630;42.146;24.756;2022-08-07T03:17:37;99041.50;;;23.93;73.13
7178;BME280;3630;42.146;24.756;2022-08-07T03:20:07;99042.34;;;23.93;73.52
7178;BME280;3630;42.146;24.756;2022-08-07T03:22:35;99041.56;;;23.91;73.96
7178;BME280;3630;42.146;24.756;2022-08-07T03:25:03;99039.09;;;23.88;74.36
7178;BME280;3630;42.146;24.756;2022-08-07T03:27:31;99038.44;;;23.83;73.98
7178;BME280;3630;42.146;24.756;2022-08-07T03:29:59;99043.97;;;23.77;74.36
7178;BME280;3630;42.146;24.756;2022-08-07T03:32:29;99047.34;;;23.79;74.25
7178;BME280;3630;42.146;24.756;2022-08-07T03:35:01;99049.13;;;23.79;74.92
7178;BME280;3630;42.146;24.756;2022-08-07T03:37:32;99049.22;;;23.77;74.89
7178;BME280;3630;42.146;24.756;2022-08-07T03:40:00;99055.22;;;23.79;74.99
7178;BME280;3630;42.146;24.756;2022-08-07T03:42:28;99055.97;;;23.83;74.79
7178;BME280;3630;42.146;24.756;2022-08-07T03:44:58;99053.34;;;23.83;74.81
7178;BME280;3630;42.146;24.756;2022-08-07T03:47:25;99050.63;;;23.84;74.17
7178;BME280;3630;42.146;24.756;2022-08-07T03:49:53;99057.25;;;23.93;73.79
7178;BME280;3630;42.146;24.756;2022-08-07T03:52:20;99048.25;;;23.98;73.79
7178;BME280;3630;42.146;24.756;2022-08-07T03:54:50;99051.50;;;24.03;73.06
7178;BME280;3630;42.146;24.756;2022-08-07T03:57:17;99046.75;;;24.13;72.76
7178;BME280;3630;42.146;24.756;2022-08-07T03:59:45;99061.09;;;24.25;72.36
7178;BME280;3630;42.146;24.756;2022-08-07T04:02:13;99053.06;;;24.28;71.68
7178;BME280;3630;42.146;24.756;2022-08-07T04:04:41;99045.25;;;24.26;72.10
7178;BME280;3630;42.146;24.756;2022-08-07T04:07:08;99047.50;;;24.34;71.45
7178;BME280;3630;42.146;24.756;2022-08-07T04:09:35;99046.97;;;24.27;71.77
7178;BME280;3630;42.146;24.756;2022-08-07T04:12:04;99057.72;;;24.40;71.27
7178;BME280;3630;42.146;24.756;2022-08-07T04:14:33;99054.75;;;24.47;70.80
7178;BME280;3630;42.146;24.756;2022-08-07T04:17:00;99051.78;;;24.55;70.57
7178;BME280;3630;42.146;24.756;2022-08-07T04:19:27;99031.75;;;24.52;70.14
7178;BME280;3630;42.146;24.756;2022-08-07T04:21:54;99056.28;;;24.70;69.87
7178;BME280;3630;42.146;24.756;2022-08-07T04:24:22;99052.88;;;24.68;70.01
7178;BME280;3630;42.146;24.756;2022-08-07T04:26:49;99058.91;;;24.70;70.02
7178;BME280;3630;42.146;24.756;2022-08-07T04:29:18;99058.72;;;24.75;70.05
7178;BME280;3630;42.146;24.756;2022-08-07T04:31:45;99058.63;;;24.76;70.18
7178;BME280;3630;42.146;24.756;2022-08-07T04:34:12;99061.53;;;24.89;69.55
7178;BME280;3630;42.146;24.756;2022-08-07T04:36:39;99058.59;;;24.95;69.71
7178;BME280;3630;42.146;24.756;2022-08-07T04:39:07;99059.16;;;25.01;69.12
7178;BME280;3630;42.146;24.756;2022-08-07T04:41:35;99061.66;;;25.04;68.48
7178;BME280;3630;42.146;24.756;2022-08-07T04:44:02;99069.16;;;25.12;68.73
7178;BME280;3630;42.146;24.756;2022-08-07T04:46:35;99061.66;;;25.21;68.59
7178;BME280;3630;42.146;24.756;2022-08-07T04:49:09;99060.56;;;25.26;68.49
7178;BME280;3630;42.146;24.756;2022-08-07T04:51:47;99072.41;;;25.17;68.20
7178;BME280;3630;42.146;24.756;2022-08-07T04:54:21;99077.13;;;25.10;68.77
7178;BME280;3630;42.146;24.756;2022-08-07T04:56:53;99079.44;;;24.99;69.22
7178;BME280;3630;42.146;24.756;2022-08-07T04:59:27;99073.19;;;24.83;69.82
7178;BME280;3630;42.146;24.756;2022-08-07T05:02:03;99080.91;;;24.86;70.33
7178;BME280;3630;42.146;24.756;2022-08-07T05:04:34;99074.91;;;24.84;70.55
7178;BME280;3630;42.146;24.756;2022-08-07T05:07:11;99074.75;;;24.87;70.54
7178;BME280;3630;42.146;24.756;2022-08-07T05:09:41;99075.59;;;24.88;70.59
7178;BME280;3630;42.146;24.756;2022-08-07T05:12:10;99085.03;;;24.92;70.48
7178;BME280;3630;42.146;24.756;2022-08-07T05:14:42;99073.69;;;24.91;70.11
7178;BME280;3630;42.146;24.756;2022-08-07T05:17:13;99082.50;;;24.90;70.31
7178;BME280;3630;42.146;24.756;2022-08-07T05:19:46;99088.53;;;24.92;70.46
7178;BME280;3630;42.146;24.756;2022-08-07T05:22:15;99098.84;;;24.97;70.18
7178;BME280;3630;42.146;24.756;2022-08-07T05:24:44;99096.75;;;25.03;69.93
7178;BME280;3630;42.146;24.756;2022-08-07T05:27:14;99093.72;;;25.11;69.53
7178;BME280;3630;42.146;24.756;2022-08-07T05:29:43;99098.63;;;25.18;69.49
7178;BME280;3630;42.146;24.756;2022-08-07T05:32:14;99096.78;;;25.20;69.68
7178;BME280;3630;42.146;24.756;2022-08-07T05:34:44;99104.28;;;25.28;69.45
7178;BME280;3630;42.146;24.756;2022-08-07T05:37:14;99102.66;;;25.43;69.12
7178;BME280;3630;42.146;24.756;2022-08-07T05:39:42;99100.69;;;25.48;68.71
7178;BME280;3630;42.146;24.756;2022-08-07T05:42:10;99103.63;;;25.59;68.68
7178;BME280;3630;42.146;24.756;2022-08-07T05:44:39;99103.31;;;25.65;68.26
7178;BME280;3630;42.146;24.756;2022-08-07T05:47:07;99107.47;;;25.69;68.00
7178;BME280;3630;42.146;24.756;2022-08-07T05:49:36;99105.09;;;25.82;67.61
7178;BME280;3630;42.146;24.756;2022-08-07T05:52:04;99111.56;;;25.92;67.00
7178;BME280;3630;42.146;24.756;2022-08-07T05:54:30;99117.13;;;26.03;66.17
7178;BME280;3630;42.146;24.756;2022-08-07T05:56:57;99125.09;;;26.18;65.83
7178;BME280;3630;42.146;24.756;2022-08-07T05:59:25;99095.34;;;26.16;65.15
7178;BME280;3630;42.146;24.756;2022-08-07T06:01:53;99127.78;;;26.50;64.90
7178;BME280;3630;42.146;24.756;2022-08-07T06:04:23;99125.59;;;26.73;64.39
7178;BME280;3630;42.146;24.756;2022-08-07T06:06:51;99120.59;;;27.00;63.26
7178;BME280;3630;42.146;24.756;2022-08-07T06:09:18;99137.69;;;27.24;61.91
7178;BME280;3630;42.146;24.756;2022-08-07T06:11:45;99132.28;;;27.41;61.50
7178;BME280;3630;42.146;24.756;2022-08-07T06:14:12;99127.28;;;27.67;59.53
7178;BME280;3630;42.146;24.756;2022-08-07T06:16:39;99127.81;;;27.87;59.28
7178;BME280;3630;42.146;24.756;2022-08-07T06:19:09;99129.00;;;28.12;58.59
7178;BME280;3630;42.146;24.756;2022-08-07T06:21:38;99129.56;;;28.31;57.45
7178;BME280;3630;42.146;24.756;2022-08-07T06:24:07;99132.50;;;28.40;56.79
7178;BME280;3630;42.146;24.756;2022-08-07T06:26:38;99123.13;;;28.49;55.83
7178;BME280;3630;42.146;24.756;2022-08-07T06:29:05;99106.50;;;28.47;56.24
7178;BME280;3630;42.146;24.756;2022-08-07T06:31:31;99122.38;;;28.75;55.45
7178;BME280;3630;42.146;24.756;2022-08-07T06:33:58;99133.19;;;28.85;53.52
7178;BME280;3630;42.146;24.756;2022-08-07T06:36:25;99130.97;;;28.79;53.68
7178;BME280;3630;42.146;24.756;2022-08-07T06:38:53;99130.53;;;28.85;52.99
7178;BME280;3630;42.146;24.756;2022-08-07T06:41:24;99116.09;;;28.76;52.93
7178;BME280;3630;42.146;24.756;2022-08-07T06:43:52;99128.75;;;28.85;52.89
7178;BME280;3630;42.146;24.756;2022-08-07T06:46:20;99124.72;;;28.80;52.25
7178;BME280;3630;42.146;24.756;2022-08-07T06:48:47;99131.13;;;28.90;52.00
7178;BME280;3630;42.146;24.756;2022-08-07T06:51:16;99124.28;;;29.00;51.15
7178;BME280;3630;42.146;24.756;2022-08-07T06:53:47;99130.81;;;29.21;50.38
7178;BME280;3630;42.146;24.756;2022-08-07T06:56:15;99133.75;;;29.31;50.21
7178;BME280;3630;42.146;24.756;2022-08-07T06:59:05;99136.44;;;29.43;50.22
7178;BME280;3630;42.146;24.756;2022-08-07T07:01:33;99130.94;;;29.46;51.09
7178;BME280;3630;42.146;24.756;2022-08-07T07:04:02;99136.25;;;29.59;50.54
7178;BME280;3630;42.146;24.756;2022-08-07T07:06:30;99128.53;;;29.68;50.82
7178;BME280;3630;42.146;24.756;2022-08-07T07:09:14;99129.97;;;29.87;50.26
7178;BME280;3630;42.146;24.756;2022-08-07T07:11:45;99137.16;;;29.97;49.31
7178;BME280;3630;42.146;24.756;2022-08-07T07:14:17;99140.50;;;30.13;48.58
7178;BME280;3630;42.146;24.756;2022-08-07T07:16:50;99138.88;;;30.23;47.64
7178;BME280;3630;42.146;24.756;2022-08-07T07:19:22;99138.34;;;30.31;47.74
7178;BME280;3630;42.146;24.756;2022-08-07T07:21:52;99141.63;;;30.47;47.71
7178;BME280;3630;42.146;24.756;2022-08-07T07:24:19;99142.28;;;30.51;47.35
7178;BME280;3630;42.146;24.756;2022-08-07T07:26:47;99145.34;;;30.57;47.56
7178;BME280;3630;42.146;24.756;2022-08-07T07:29:21;99142.69;;;30.57;46.72
7178;BME280;3630;42.146;24.756;2022-08-07T07:31:51;99144.16;;;30.61;44.41
7178;BME280;3630;42.146;24.756;2022-08-07T07:34:24;99143.22;;;30.62;43.82
7178;BME280;3630;42.146;24.756;2022-08-07T07:36:51;99150.66;;;30.57;44.59
7178;BME280;3630;42.146;24.756;2022-08-07T07:39:20;99155.09;;;30.57;44.11
7178;BME280;3630;42.146;24.756;2022-08-07T07:41:49;99149.84;;;30.80;44.53
7178;BME280;3630;42.146;24.756;2022-08-07T07:44:19;99149.63;;;30.83;43.24
7178;BME280;3630;42.146;24.756;2022-08-07T07:46:47;99149.13;;;30.66;44.01
7178;BME280;3630;42.146;24.756;2022-08-07T07:49:17;99157.97;;;30.54;44.06
7178;BME280;3630;42.146;24.756;2022-08-07T07:51:46;99155.31;;;30.28;44.52
7178;BME280;3630;42.146;24.756;2022-08-07T07:54:15;99154.88;;;30.09;44.55
7178;BME280;3630;42.146;24.756;2022-08-07T07:56:43;99151.19;;;30.12;44.94
7178;BME280;3630;42.146;24.756;2022-08-07T07:59:12;99148.41;;;29.88;45.16
7178;BME280;3630;42.146;24.756;2022-08-07T08:01:44;99162.19;;;29.93;45.72
7178;BME280;3630;42.146;24.756;2022-08-07T08:04:12;99148.31;;;30.15;44.82
7178;BME280;3630;42.146;24.756;2022-08-07T08:06:40;99158.59;;;30.32;43.65
7178;BME280;3630;42.146;24.756;2022-08-07T08:09:08;99151.19;;;30.37;43.73
7178;BME280;3630;42.146;24.756;2022-08-07T08:11:36;99150.09;;;30.52;42.93
7178;BME280;3630;42.146;24.756;2022-08-07T08:14:03;99152.31;;;30.71;42.86
7178;BME280;3630;42.146;24.756;2022-08-07T08:16:33;99145.38;;;30.93;42.67
7178;BME280;3630;42.146;24.756;2022-08-07T08:19:06;99143.19;;;31.11;41.83
7178;BME280;3630;42.146;24.756;2022-08-07T08:21:34;99153.81;;;31.11;41.07
7178;BME280;3630;42.146;24.756;2022-08-07T08:24:20;99149.50;;;30.85;42.10
7178;BME280;3630;42.146;24.756;2022-08-07T08:27:05;99141.94;;;31.04;41.79
7178;BME280;3630;42.146;24.756;2022-08-07T08:29:39;99149.13;;;31.15;41.38
7178;BME280;3630;42.146;24.756;2022-08-07T08:32:09;99149.63;;;30.83;41.12
7178;BME280;3630;42.146;24.756;2022-08-07T08:34:39;99155.28;;;30.66;41.97
7178;BME280;3630;42.146;24.756;2022-08-07T08:37:09;99146.41;;;30.91;40.58
7178;BME280;3630;42.146;24.756;2022-08-07T08:39:39;99117.00;;;30.70;41.28
7178;BME280;3630;42.146;24.756;2022-08-07T08:42:15;99152.91;;;31.00;42.07
7178;BME280;3630;42.146;24.756;2022-08-07T08:44:52;99126.00;;;31.04;41.22
7178;BME280;3630;42.146;24.756;2022-08-07T08:47:25;99130.78;;;31.12;41.69
7178;BME280;3630;42.146;24.756;2022-08-07T08:50:03;99130.03;;;31.10;41.16
7178;BME280;3630;42.146;24.756;2022-08-07T08:52:46;99128.41;;;31.20;40.96
7178;BME280;3630;42.146;24.756;2022-08-07T08:55:20;99128.28;;;31.21;41.29
7178;BME280;3630;42.146;24.756;2022-08-07T08:57:57;99131.25;;;31.40;42.12
7178;BME280;3630;42.146;24.756;2022-08-07T09:00:29;99137.81;;;31.24;38.91
7178;BME280;3630;42.146;24.756;2022-08-07T09:03:00;99136.19;;;31.10;37.27
7178;BME280;3630;42.146;24.756;2022-08-07T09:05:35;99130.44;;;31.16;38.07
7178;BME280;3630;42.146;24.756;2022-08-07T09:08:28;99126.63;;;31.08;38.35
7178;BME280;3630;42.146;24.756;2022-08-07T09:11:08;99106.22;;;31.32;37.40
7178;BME280;3630;42.146;24.756;2022-08-07T09:13:42;99118.44;;;31.58;37.05
7178;BME280;3630;42.146;24.756;2022-08-07T09:16:17;99115.94;;;31.79;36.23
7178;BME280;3630;42.146;24.756;2022-08-07T09:19:04;99118.34;;;32.05;36.04
7178;BME280;3630;42.146;24.756;2022-08-07T09:21:38;99119.69;;;32.11;35.93
7178;BME280;3630;42.146;24.756;2022-08-07T09:24:16;99115.56;;;32.07;35.88
7178;BME280;3630;42.146;24.756;2022-08-07T09:26:55;99119.19;;;31.71;35.39
7178;BME280;3630;42.146;24.756;2022-08-07T09:29:35;99116.31;;;31.74;35.44
7178;BME280;3630;42.146;24.756;2022-08-07T09:32:14;99114.34;;;31.65;35.81
7178;BME280;3630;42.146;24.756;2022-08-07T09:34:51;99117.03;;;31.41;35.77
7178;BME280;3630;42.146;24.756;2022-08-07T09:37:29;99116.72;;;31.22;36.31
7178;BME280;3630;42.146;24.756;2022-08-07T09:40:04;99114.78;;;31.01;36.54
7178;BME280;3630;42.146;24.756;2022-08-07T09:42:42;99111.84;;;30.92;37.33
7178;BME280;3630;42.146;24.756;2022-08-07T09:45:17;99111.91;;;30.91;36.76
7178;BME280;3630;42.146;24.756;2022-08-07T09:47:52;99108.53;;;30.89;37.12
7178;BME280;3630;42.146;24.756;2022-08-07T09:50:29;99116.19;;;30.93;37.11
7178;BME280;3630;42.146;24.756;2022-08-07T09:53:01;99107.91;;;30.98;36.63
7178;BME280;3630;42.146;24.756;2022-08-07T09:55:40;99103.09;;;30.90;36.36
7178;BME280;3630;42.146;24.756;2022-08-07T09:58:23;99099.84;;;30.87;37.58
7178;BME280;3630;42.146;24.756;2022-08-07T10:01:02;99090.69;;;31.04;36.25
7178;BME280;3630;42.146;24.756;2022-08-07T10:03:44;99089.34;;;31.33;35.42
7178;BME280;3630;42.146;24.756;2022-08-07T10:06:24;99083.09;;;31.69;34.53
7178;BME280;3630;42.146;24.756;2022-08-07T10:12:11;99082.97;;;31.70;34.38
7178;BME280;3630;42.146;24.756;2022-08-07T10:15:03;99076.53;;;32.07;34.65
7178;BME280;3630;42.146;24.756;2022-08-07T10:17:55;99065.91;;;32.19;33.25
7178;BME280;3630;42.146;24.756;2022-08-07T10:20:32;99061.91;;;32.13;33.00
7178;BME280;3630;42.146;24.756;2022-08-07T10:23:16;99059.00;;;32.05;33.09
7178;BME280;3630;42.146;24.756;2022-08-07T10:25:59;99072.16;;;32.18;33.07
7178;BME280;3630;42.146;24.756;2022-08-07T10:28:40;99076.97;;;31.90;32.54
7178;BME280;3630;42.146;24.756;2022-08-07T10:31:28;99077.25;;;32.09;32.57
7178;BME280;3630;42.146;24.756;2022-08-07T10:34:12;99055.72;;;32.46;31.92
7178;BME280;3630;42.146;24.756;2022-08-07T10:36:58;99055.66;;;32.90;30.82
7178;BME280;3630;42.146;24.756;2022-08-07T10:39:38;99058.69;;;32.75;31.22
7178;BME280;3630;42.146;24.756;2022-08-07T10:42:21;99065.66;;;32.44;30.93
7178;BME280;3630;42.146;24.756;2022-08-07T10:45:00;99066.59;;;32.43;30.32
7178;BME280;3630;42.146;24.756;2022-08-07T10:47:35;99065.13;;;32.39;29.98
7178;BME280;3630;42.146;24.756;2022-08-07T10:50:10;99061.91;;;32.35;30.38
7178;BME280;3630;42.146;24.756;2022-08-07T10:52:48;99064.66;;;32.56;29.79
7178;BME280;3630;42.146;24.756;2022-08-07T10:55:20;99052.31;;;32.77;29.50
7178;BME280;3630;42.146;24.756;2022-08-07T10:57:57;99045.00;;;32.90;29.92
7178;BME280;3630;42.146;24.756;2022-08-07T11:00:33;99054.28;;;32.96;29.67
7178;BME280;3630;42.146;24.756;2022-08-07T11:03:05;99050.81;;;32.84;29.52
7178;BME280;3630;42.146;24.756;2022-08-07T11:05:40;99045.44;;;33.06;29.25
7178;BME280;3630;42.146;24.756;2022-08-07T11:08:11;99030.63;;;33.13;29.26
7178;BME280;3630;42.146;24.756;2022-08-07T11:10:47;99048.97;;;33.28;29.06
7178;BME280;3630;42.146;24.756;2022-08-07T11:13:24;99039.03;;;33.50;29.23
7178;BME280;3630;42.146;24.756;2022-08-07T11:16:03;99048.41;;;33.45;28.89
7178;BME280;3630;42.146;24.756;2022-08-07T11:18:36;99037.13;;;33.73;29.21
7178;BME280;3630;42.146;24.756;2022-08-07T11:21:10;99038.00;;;33.83;27.76
7178;BME280;3630;42.146;24.756;2022-08-07T11:23:46;99013.75;;;33.45;28.80
7178;BME280;3630;42.146;24.756;2022-08-07T11:26:20;99033.47;;;33.53;28.18
7178;BME280;3630;42.146;24.756;2022-08-07T11:28:55;99027.75;;;33.58;29.08
7178;BME280;3630;42.146;24.756;2022-08-07T11:31:38;99031.03;;;33.30;28.33
7178;BME280;3630;42.146;24.756;2022-08-07T11:34:15;99028.47;;;33.07;28.48
7178;BME280;3630;42.146;24.756;2022-08-07T11:36:53;99018.25;;;33.23;28.39
7178;BME280;3630;42.146;24.756;2022-08-07T11:39:38;99029.81;;;33.75;27.75
7178;BME280;3630;42.146;24.756;2022-08-07T11:42:12;99035.28;;;33.73;27.10
7178;BME280;3630;42.146;24.756;2022-08-07T11:44:46;99020.34;;;33.61;27.26
7178;BME280;3630;42.146;24.756;2022-08-07T11:47:27;99019.28;;;33.32;27.31
7178;BME280;3630;42.146;24.756;2022-08-07T11:50:20;99008.06;;;33.70;27.55
7178;BME280;3630;42.146;24.756;2022-08-07T11:53:02;99015.56;;;33.86;26.91
7178;BME280;3630;42.146;24.756;2022-08-07T11:55:44;99012.75;;;33.57;27.14
7178;BME280;3630;42.146;24.756;2022-08-07T11:58:17;99004.19;;;33.83;26.79
7178;BME280;3630;42.146;24.756;2022-08-07T12:00:54;99001.63;;;33.72;26.19
7178;BME280;3630;42.146;24.756;2022-08-07T12:03:46;99009.09;;;33.58;27.20
7178;BME280;3630;42.146;24.756;2022-08-07T12:06:31;99004.47;;;33.39;27.42
7178;BME280;3630;42.146;24.756;2022-08-07T12:09:04;99013.13;;;33.32;27.78
7178;BME280;3630;42.146;24.756;2022-08-07T12:11:36;99006.50;;;33.26;28.22
7178;BME280;3630;42.146;24.756;2022-08-07T12:14:10;99016.41;;;33.24;28.51
7178;BME280;3630;42.146;24.756;2022-08-07T12:16:43;99011.28;;;33.11;29.16
7178;BME280;3630;42.146;24.756;2022-08-07T12:19:20;99012.41;;;32.98;29.51
7178;BME280;3630;42.146;24.756;2022-08-07T12:22:02;99014.56;;;33.04;29.13
7178;BME280;3630;42.146;24.756;2022-08-07T12:24:36;99020.75;;;33.04;29.30
7178;BME280;3630;42.146;24.756;2022-08-07T12:27:08;98999.56;;;32.71;30.29
7178;BME280;3630;42.146;24.756;2022-08-07T12:29:41;99017.63;;;32.45;31.44
7178;BME280;3630;42.146;24.756;2022-08-07T12:32:18;99005.19;;;32.35;31.48
7178;BME280;3630;42.146;24.756;2022-08-07T12:34:49;99013.03;;;32.36;31.41
7178;BME280;3630;42.146;24.756;2022-08-07T12:37:18;99003.88;;;32.18;31.53
7178;BME280;3630;42.146;24.756;2022-08-07T12:39:48;98999.78;;;32.03;31.93
7178;BME280;3630;42.146;24.756;2022-08-07T12:42:20;99010.06;;;32.07;31.88
7178;BME280;3630;42.146;24.756;2022-08-07T12:44:49;99009.59;;;32.02;31.63
7178;BME280;3630;42.146;24.756;2022-08-07T12:47:23;99003.50;;;32.34;31.19
7178;BME280;3630;42.146;24.756;2022-08-07T12:50:02;99006.50;;;32.62;30.27
7178;BME280;3630;42.146;24.756;2022-08-07T12:52:37;99004.66;;;32.74;30.08
7178;BME280;3630;42.146;24.756;2022-08-07T12:55:12;98997.63;;;32.73;30.00
7178;BME280;3630;42.146;24.756;2022-08-07T12:57:41;98992.81;;;32.99;29.62
7178;BME280;3630;42.146;24.756;2022-08-07T13:00:10;99009.97;;;33.06;29.80
7178;BME280;3630;42.146;24.756;2022-08-07T13:02:49;98997.03;;;33.01;29.92
7178;BME280;3630;42.146;24.756;2022-08-07T13:05:37;98994.88;;;32.95;30.32
7178;BME280;3630;42.146;24.756;2022-08-07T13:08:23;98990.19;;;32.88;30.00
7178;BME280;3630;42.146;24.756;2022-08-07T13:11:06;98993.56;;;32.90;29.80
7178;BME280;3630;42.146;24.756;2022-08-07T13:13:42;98989.09;;;32.90;29.98
7178;BME280;3630;42.146;24.756;2022-08-07T13:16:14;98999.56;;;32.71;30.28
7178;BME280;3630;42.146;24.756;2022-08-07T13:18:49;99005.50;;;32.63;30.55
7178;BME280;3630;42.146;24.756;2022-08-07T13:21:23;98999.97;;;32.44;31.37
7178;BME280;3630;42.146;24.756;2022-08-07T13:24:00;99011.91;;;32.50;31.63
7178;BME280;3630;42.146;24.756;2022-08-07T13:26:32;99009.25;;;32.50;31.58
7178;BME280;3630;42.146;24.756;2022-08-07T13:29:09;99008.94;;;32.43;31.89
7178;BME280;3630;42.146;24.756;2022-08-07T13:31:42;99019.44;;;32.45;31.78
7178;BME280;3630;42.146;24.756;2022-08-07T13:34:17;99020.41;;;32.44;32.18
7178;BME280;3630;42.146;24.756;2022-08-07T13:36:52;99022.63;;;32.28;32.69
7178;BME280;3630;42.146;24.756;2022-08-07T13:39:27;99016.94;;;32.32;32.71